sensor_id;sensor_type;location;lat;lon;timestamp;P1;durP1;ratioP1;P2;durP2;ratioP2
20997;SDS011;10657;51.276;6.390;2023-08-12T00:00:57;17.85;;;10.82;;
20997;SDS011;10657;51.276;6.390;2023-08-12T00:03:24;19.27;;;12.60;;
20997;SDS011;10657;51.276;6.390;2023-08-12T00:05:51;18.35;;;11.45;;
20997;SDS011;10657;51.276;6.390;2023-08-12T00:08:19;18.30;;;13.15;;
20997;SDS011;10657;51.276;6.390;2023-08-12T00:10:46;18.65;;;12.68;;
20997;SDS011;10657;51.276;6.390;2023-08-12T00:13:12;19.75;;;12.63;;
20997;SDS011;10657;51.276;6.390;2023-08-12T00:15:44;19.63;;;12.95;;
20997;SDS011;10657;51.276;6.390;2023-08-12T00:18:10;22.77;;;13.23;;
20997;SDS011;10657;51.276;6.390;2023-08-12T00:20:37;21.27;;;12.68;;
20997;SDS011;10657;51.276;6.390;2023-08-12T00:23:04;22.38;;;13.75;;
20997;SDS011;10657;51.276;6.390;2023-08-12T00:25:31;18.58;;;13.75;;
20997;SDS011;10657;51.276;6.390;2023-08-12T00:27:58;22.60;;;13.85;;
20997;SDS011;10657;51.276;6.390;2023-08-12T00:30:25;22.15;;;14.05;;
20997;SDS011;10657;51.276;6.390;2023-08-12T00:32:51;21.52;;;13.02;;
20997;SDS011;10657;51.276;6.390;2023-08-12T00:35:18;19.42;;;12.73;;
20997;SDS011;10657;51.276;6.390;2023-08-12T00:37:45;19.77;;;13.52;;
20997;SDS011;10657;51.276;6.390;2023-08-12T00:40:12;19.75;;;12.57;;
20997;SDS011;10657;51.276;6.390;2023-08-12T00:42:39;19.27;;;13.63;;
20997;SDS011;10657;51.276;6.390;2023-08-12T00:45:09;20.33;;;13.07;;
20997;SDS011;10657;51.276;6.390;2023-08-12T00:47:37;20.02;;;12.50;;
20997;SDS011;10657;51.276;6.390;2023-08-12T00:50:04;20.92;;;13.27;;
20997;SDS011;10657;51.276;6.390;2023-08-12T00:52:35;21.50;;;13.70;;
20997;SDS011;10657;51.276;6.390;2023-08-12T00:55:01;18.80;;;11.23;;
20997;SDS011;10657;51.276;6.390;2023-08-12T00:57:29;15.57;;;10.40;;
20997;SDS011;10657;51.276;6.390;2023-08-12T00:59:55;17.75;;;10.38;;
20997;SDS011;10657;51.276;6.390;2023-08-12T01:02:23;16.98;;;12.43;;
20997;SDS011;10657;51.276;6.390;2023-08-12T01:04:50;20.33;;;12.05;;
20997;SDS011;10657;51.276;6.390;2023-08-12T01:07:16;16.60;;;9.40;;
20997;SDS011;10657;51.276;6.390;2023-08-12T01:09:43;15.73;;;9.80;;
20997;SDS011;10657;51.276;6.390;2023-08-12T01:12:13;12.27;;;8.32;;
20997;SDS011;10657;51.276;6.390;2023-08-12T01:15:07;14.52;;;8.85;;
20997;SDS011;10657;51.276;6.390;2023-08-12T01:17:39;16.70;;;10.98;;
20997;SDS011;10657;51.276;6.390;2023-08-12T01:20:08;16.42;;;11.45;;
20997;SDS011;10657;51.276;6.390;2023-08-12T01:22:38;15.20;;;10.48;;
20997;SDS011;10657;51.276;6.390;2023-08-12T01:25:07;13.48;;;8.63;;
20997;SDS011;10657;51.276;6.390;2023-08-12T01:27:35;19.77;;;11.75;;
20997;SDS011;10657;51.276;6.390;2023-08-12T01:30:02;17.70;;;10.85;;
20997;SDS011;10657;51.276;6.390;2023-08-12T01:35:19;13.82;;;7.95;;
20997;SDS011;10657;51.276;6.390;2023-08-12T01:37:48;14.23;;;7.97;;
20997;SDS011;10657;51.276;6.390;2023-08-12T01:40:17;12.68;;;7.70;;
20997;SDS011;10657;51.276;6.390;2023-08-12T01:42:45;13.32;;;7.80;;
20997;SDS011;10657;51.276;6.390;2023-08-12T01:45:12;14.57;;;8.73;;
20997;SDS011;10657;51.276;6.390;2023-08-12T01:47:42;15.63;;;9.68;;
20997;SDS011;10657;51.276;6.390;2023-08-12T01:50:10;15.10;;;9.73;;
20997;SDS011;10657;51.276;6.390;2023-08-12T01:52:37;15.40;;;10.70;;
20997;SDS011;10657;51.276;6.390;2023-08-12T01:55:03;14.05;;;9.23;;
20997;SDS011;10657;51.276;6.390;2023-08-12T01:57:30;16.77;;;9.52;;
20997;SDS011;10657;51.276;6.390;2023-08-12T01:59:57;16.60;;;11.15;;
20997;SDS011;10657;51.276;6.390;2023-08-12T02:02:23;15.25;;;10.25;;
20997;SDS011;10657;51.276;6.390;2023-08-12T02:04:50;16.83;;;9.43;;
20997;SDS011;10657;51.276;6.390;2023-08-12T02:07:17;19.08;;;10.82;;
20997;SDS011;10657;51.276;6.390;2023-08-12T02:09:43;15.27;;;9.27;;
20997;SDS011;10657;51.276;6.390;2023-08-12T02:12:10;18.20;;;10.70;;
20997;SDS011;10657;51.276;6.390;2023-08-12T02:14:37;17.13;;;10.80;;
20997;SDS011;10657;51.276;6.390;2023-08-12T02:17:03;19.25;;;11.75;;
20997;SDS011;10657;51.276;6.390;2023-08-12T02:19:33;17.20;;;10.85;;
20997;SDS011;10657;51.276;6.390;2023-08-12T02:22:03;20.90;;;10.77;;
20997;SDS011;10657;51.276;6.390;2023-08-12T02:24:30;17.73;;;11.32;;
20997;SDS011;10657;51.276;6.390;2023-08-12T02:26:57;17.02;;;10.07;;
20997;SDS011;10657;51.276;6.390;2023-08-12T02:29:24;15.63;;;10.63;;
20997;SDS011;10657;51.276;6.390;2023-08-12T02:31:50;19.27;;;10.60;;
20997;SDS011;10657;51.276;6.390;2023-08-12T02:34:17;18.67;;;11.88;;
20997;SDS011;10657;51.276;6.390;2023-08-12T02:36:44;17.27;;;9.75;;
20997;SDS011;10657;51.276;6.390;2023-08-12T02:39:11;13.63;;;8.48;;
20997;SDS011;10657;51.276;6.390;2023-08-12T02:41:38;18.05;;;9.52;;
20997;SDS011;10657;51.276;6.390;2023-08-12T02:44:04;15.70;;;10.32;;
20997;SDS011;10657;51.276;6.390;2023-08-12T02:46:31;17.70;;;9.93;;
20997;SDS011;10657;51.276;6.390;2023-08-12T02:48:58;11.50;;;7.47;;
20997;SDS011;10657;51.276;6.390;2023-08-12T02:51:24;18.15;;;10.93;;
20997;SDS011;10657;51.276;6.390;2023-08-12T02:53:51;18.63;;;11.68;;
20997;SDS011;10657;51.276;6.390;2023-08-12T02:56:18;17.48;;;11.25;;
20997;SDS011;10657;51.276;6.390;2023-08-12T02:58:44;17.25;;;11.65;;
20997;SDS011;10657;51.276;6.390;2023-08-12T03:01:11;17.02;;;10.85;;
20997;SDS011;10657;51.276;6.390;2023-08-12T03:03:38;18.58;;;11.20;;
20997;SDS011;10657;51.276;6.390;2023-08-12T03:06:04;17.77;;;11.40;;
20997;SDS011;10657;51.276;6.390;2023-08-12T03:08:31;17.33;;;11.48;;
20997;SDS011;10657;51.276;6.390;2023-08-12T03:11:01;15.93;;;9.80;;
20997;SDS011;10657;51.276;6.390;2023-08-12T03:13:28;19.23;;;12.45;;
20997;SDS011;10657;51.276;6.390;2023-08-12T03:15:55;20.90;;;13.82;;
20997;SDS011;10657;51.276;6.390;2023-08-12T03:18:22;20.35;;;13.38;;
20997;SDS011;10657;51.276;6.390;2023-08-12T03:20:49;17.58;;;12.25;;
20997;SDS011;10657;51.276;6.390;2023-08-12T03:23:16;19.80;;;12.23;;
20997;SDS011;10657;51.276;6.390;2023-08-12T03:25:43;18.00;;;12.18;;
20997;SDS011;10657;51.276;6.390;2023-08-12T03:28:09;20.50;;;13.13;;
20997;SDS011;10657;51.276;6.390;2023-08-12T03:30:36;15.93;;;10.55;;
20997;SDS011;10657;51.276;6.390;2023-08-12T03:33:03;12.00;;;7.93;;
20997;SDS011;10657;51.276;6.390;2023-08-12T03:35:30;19.08;;;12.70;;
20997;SDS011;10657;51.276;6.390;2023-08-12T03:37:56;16.33;;;9.60;;
20997;SDS011;10657;51.276;6.390;2023-08-12T03:40:23;16.10;;;10.20;;
20997;SDS011;10657;51.276;6.390;2023-08-12T03:42:50;16.50;;;8.90;;
20997;SDS011;10657;51.276;6.390;2023-08-12T03:45:16;20.52;;;12.23;;
20997;SDS011;10657;51.276;6.390;2023-08-12T03:47:43;20.23;;;13.93;;
20997;SDS011;10657;51.276;6.390;2023-08-12T03:50:10;16.63;;;11.88;;
20997;SDS011;10657;51.276;6.390;2023-08-12T03:52:36;19.17;;;12.68;;
20997;SDS011;10657;51.276;6.390;2023-08-12T03:55:03;15.68;;;10.57;;
20997;SDS011;10657;51.276;6.390;2023-08-12T03:57:30;21.20;;;11.60;;
20997;SDS011;10657;51.276;6.390;2023-08-12T03:59:57;19.65;;;12.10;;
20997;SDS011;10657;51.276;6.390;2023-08-12T04:02:24;19.05;;;11.50;;
20997;SDS011;10657;51.276;6.390;2023-08-12T04:04:50;21.92;;;12.98;;
20997;SDS011;10657;51.276;6.390;2023-08-12T04:07:17;23.88;;;13.32;;
20997;SDS011;10657;51.276;6.390;2023-08-12T04:09:44;18.90;;;12.48;;
20997;SDS011;10657;51.276;6.390;2023-08-12T04:12:10;18.13;;;11.38;;
20997;SDS011;10657;51.276;6.390;2023-08-12T04:14:37;20.67;;;13.30;;
20997;SDS011;10657;51.276;6.390;2023-08-12T04:17:04;14.60;;;9.43;;
20997;SDS011;10657;51.276;6.390;2023-08-12T04:19:30;17.88;;;11.38;;
20997;SDS011;10657;51.276;6.390;2023-08-12T04:21:57;16.52;;;11.38;;
20997;SDS011;10657;51.276;6.390;2023-08-12T04:24:24;17.70;;;12.30;;
20997;SDS011;10657;51.276;6.390;2023-08-12T04:26:50;19.48;;;12.57;;
20997;SDS011;10657;51.276;6.390;2023-08-12T04:29:17;19.90;;;12.30;;
20997;SDS011;10657;51.276;6.390;2023-08-12T04:31:44;19.35;;;11.40;;
20997;SDS011;10657;51.276;6.390;2023-08-12T04:34:10;16.58;;;10.95;;
20997;SDS011;10657;51.276;6.390;2023-08-12T04:36:37;20.75;;;12.65;;
20997;SDS011;10657;51.276;6.390;2023-08-12T04:39:04;18.75;;;11.20;;
20997;SDS011;10657;51.276;6.390;2023-08-12T04:41:31;17.80;;;10.57;;
20997;SDS011;10657;51.276;6.390;2023-08-12T04:43:57;18.85;;;11.80;;
20997;SDS011;10657;51.276;6.390;2023-08-12T04:46:24;18.38;;;10.55;;
20997;SDS011;10657;51.276;6.390;2023-08-12T04:48:50;22.27;;;12.13;;
20997;SDS011;10657;51.276;6.390;2023-08-12T04:51:18;20.58;;;12.40;;
20997;SDS011;10657;51.276;6.390;2023-08-12T04:53:44;15.98;;;10.65;;
20997;SDS011;10657;51.276;6.390;2023-08-12T04:56:11;21.52;;;10.57;;
20997;SDS011;10657;51.276;6.390;2023-08-12T04:58:38;18.92;;;11.18;;
20997;SDS011;10657;51.276;6.390;2023-08-12T05:01:04;11.07;;;6.60;;
20997;SDS011;10657;51.276;6.390;2023-08-12T05:03:31;12.40;;;8.27;;
20997;SDS011;10657;51.276;6.390;2023-08-12T05:05:58;17.13;;;10.23;;
20997;SDS011;10657;51.276;6.390;2023-08-12T05:08:24;16.70;;;10.63;;
20997;SDS011;10657;51.276;6.390;2023-08-12T05:10:51;17.48;;;10.52;;
20997;SDS011;10657;51.276;6.390;2023-08-12T05:13:18;14.45;;;8.88;;
20997;SDS011;10657;51.276;6.390;2023-08-12T05:15:45;14.02;;;5.88;;
20997;SDS011;10657;51.276;6.390;2023-08-12T05:18:13;16.45;;;11.13;;
20997;SDS011;10657;51.276;6.390;2023-08-12T05:20:40;18.63;;;11.02;;
20997;SDS011;10657;51.276;6.390;2023-08-12T05:23:12;17.38;;;12.45;;
20997;SDS011;10657;51.276;6.390;2023-08-12T05:25:39;10.55;;;6.43;;
20997;SDS011;10657;51.276;6.390;2023-08-12T05:28:06;13.95;;;8.27;;
20997;SDS011;10657;51.276;6.390;2023-08-12T05:30:34;13.43;;;8.93;;
20997;SDS011;10657;51.276;6.390;2023-08-12T05:33:01;13.75;;;7.07;;
20997;SDS011;10657;51.276;6.390;2023-08-12T05:35:32;13.45;;;8.25;;
20997;SDS011;10657;51.276;6.390;2023-08-12T05:37:59;14.13;;;8.40;;
20997;SDS011;10657;51.276;6.390;2023-08-12T05:40:26;14.68;;;9.32;;
20997;SDS011;10657;51.276;6.390;2023-08-12T05:42:53;14.55;;;8.68;;
20997;SDS011;10657;51.276;6.390;2023-08-12T05:45:20;18.88;;;9.85;;
20997;SDS011;10657;51.276;6.390;2023-08-12T05:47:47;15.85;;;9.65;;
20997;SDS011;10657;51.276;6.390;2023-08-12T05:50:13;17.38;;;10.68;;
20997;SDS011;10657;51.276;6.390;2023-08-12T05:52:40;20.40;;;10.32;;
20997;SDS011;10657;51.276;6.390;2023-08-12T05:55:07;17.30;;;9.98;;
20997;SDS011;10657;51.276;6.390;2023-08-12T05:57:34;13.73;;;8.35;;
20997;SDS011;10657;51.276;6.390;2023-08-12T06:00:00;13.00;;;6.60;;
20997;SDS011;10657;51.276;6.390;2023-08-12T06:02:27;10.02;;;4.70;;
20997;SDS011;10657;51.276;6.390;2023-08-12T06:04:54;10.93;;;5.72;;
20997;SDS011;10657;51.276;6.390;2023-08-12T06:07:21;10.25;;;6.22;;
20997;SDS011;10657;51.276;6.390;2023-08-12T06:09:49;9.40;;;5.75;;
20997;SDS011;10657;51.276;6.390;2023-08-12T06:12:16;11.68;;;6.07;;
20997;SDS011;10657;51.276;6.390;2023-08-12T06:14:43;15.20;;;8.02;;
20997;SDS011;10657;51.276;6.390;2023-08-12T06:17:10;15.52;;;8.13;;
20997;SDS011;10657;51.276;6.390;2023-08-12T06:19:36;9.35;;;5.45;;
20997;SDS011;10657;51.276;6.390;2023-08-12T06:22:03;8.40;;;4.60;;
20997;SDS011;10657;51.276;6.390;2023-08-12T06:24:30;8.52;;;4.15;;
20997;SDS011;10657;51.276;6.390;2023-08-12T06:26:56;10.13;;;6.22;;
20997;SDS011;10657;51.276;6.390;2023-08-12T06:29:23;13.00;;;7.15;;
20997;SDS011;10657;51.276;6.390;2023-08-12T06:31:50;11.23;;;6.93;;
20997;SDS011;10657;51.276;6.390;2023-08-12T06:34:18;11.82;;;6.05;;
20997;SDS011;10657;51.276;6.390;2023-08-12T06:36:44;9.88;;;5.95;;
20997;SDS011;10657;51.276;6.390;2023-08-12T06:39:11;8.77;;;5.20;;
20997;SDS011;10657;51.276;6.390;2023-08-12T06:41:37;10.80;;;5.80;;
20997;SDS011;10657;51.276;6.390;2023-08-12T06:44:04;11.57;;;5.50;;
20997;SDS011;10657;51.276;6.390;2023-08-12T06:46:31;10.48;;;5.40;;
20997;SDS011;10657;51.276;6.390;2023-08-12T06:48:58;8.23;;;3.75;;
20997;SDS011;10657;51.276;6.390;2023-08-12T06:51:25;9.48;;;4.72;;
20997;SDS011;10657;51.276;6.390;2023-08-12T06:53:52;9.23;;;5.63;;
20997;SDS011;10657;51.276;6.390;2023-08-12T06:56:19;9.90;;;5.05;;
20997;SDS011;10657;51.276;6.390;2023-08-12T06:58:45;7.82;;;4.78;;
20997;SDS011;10657;51.276;6.390;2023-08-12T07:01:12;10.35;;;5.00;;
20997;SDS011;10657;51.276;6.390;2023-08-12T07:03:41;9.52;;;5.47;;
20997;SDS011;10657;51.276;6.390;2023-08-12T07:06:07;7.97;;;4.40;;
20997;SDS011;10657;51.276;6.390;2023-08-12T07:08:34;8.57;;;4.50;;
20997;SDS011;10657;51.276;6.390;2023-08-12T07:11:01;10.90;;;4.57;;
20997;SDS011;10657;51.276;6.390;2023-08-12T07:13:27;7.30;;;4.10;;
20997;SDS011;10657;51.276;6.390;2023-08-12T07:15:54;8.82;;;4.25;;
20997;SDS011;10657;51.276;6.390;2023-08-12T07:18:21;10.25;;;4.68;;
20997;SDS011;10657;51.276;6.390;2023-08-12T07:20:49;8.88;;;4.40;;
20997;SDS011;10657;51.276;6.390;2023-08-12T07:23:16;8.07;;;3.80;;
20997;SDS011;10657;51.276;6.390;2023-08-12T07:25:45;7.70;;;3.78;;
20997;SDS011;10657;51.276;6.390;2023-08-12T07:28:12;7.60;;;4.03;;
20997;SDS011;10657;51.276;6.390;2023-08-12T07:30:39;7.05;;;3.40;;
20997;SDS011;10657;51.276;6.390;2023-08-12T07:33:06;6.97;;;3.60;;
20997;SDS011;10657;51.276;6.390;2023-08-12T07:35:33;7.63;;;3.17;;
20997;SDS011;10657;51.276;6.390;2023-08-12T07:38:00;7.78;;;3.50;;
20997;SDS011;10657;51.276;6.390;2023-08-12T07:40:26;8.15;;;3.10;;
20997;SDS011;10657;51.276;6.390;2023-08-12T07:42:53;6.07;;;2.95;;
20997;SDS011;10657;51.276;6.390;2023-08-12T07:45:21;8.77;;;2.90;;
20997;SDS011;10657;51.276;6.390;2023-08-12T07:47:48;8.63;;;3.10;;
20997;SDS011;10657;51.276;6.390;2023-08-12T07:50:15;7.38;;;3.08;;
20997;SDS011;10657;51.276;6.390;2023-08-12T07:52:43;8.02;;;3.20;;
20997;SDS011;10657;51.276;6.390;2023-08-12T07:55:09;5.05;;;2.30;;
20997;SDS011;10657;51.276;6.390;2023-08-12T07:57:36;7.50;;;2.70;;
20997;SDS011;10657;51.276;6.390;2023-08-12T08:00:03;6.25;;;2.50;;
20997;SDS011;10657;51.276;6.390;2023-08-12T08:02:31;6.40;;;2.50;;
20997;SDS011;10657;51.276;6.390;2023-08-12T08:04:58;6.55;;;2.40;;
20997;SDS011;10657;51.276;6.390;2023-08-12T08:07:24;8.73;;;2.42;;
20997;SDS011;10657;51.276;6.390;2023-08-12T08:09:51;4.95;;;2.22;;
20997;SDS011;10657;51.276;6.390;2023-08-12T08:12:18;6.57;;;2.05;;
20997;SDS011;10657;51.276;6.390;2023-08-12T08:14:44;5.05;;;1.95;;
20997;SDS011;10657;51.276;6.390;2023-08-12T08:17:11;4.85;;;2.25;;
20997;SDS011;10657;51.276;6.390;2023-08-12T08:19:38;4.68;;;2.10;;
20997;SDS011;10657;51.276;6.390;2023-08-12T08:22:05;4.57;;;2.00;;
20997;SDS011;10657;51.276;6.390;2023-08-12T08:24:32;4.85;;;2.08;;
20997;SDS011;10657;51.276;6.390;2023-08-12T08:26:58;4.53;;;1.83;;
20997;SDS011;10657;51.276;6.390;2023-08-12T08:29:25;4.07;;;1.70;;
20997;SDS011;10657;51.276;6.390;2023-08-12T08:31:52;4.47;;;1.73;;
20997;SDS011;10657;51.276;6.390;2023-08-12T08:34:18;5.43;;;2.08;;
20997;SDS011;10657;51.276;6.390;2023-08-12T08:36:45;3.63;;;1.70;;
20997;SDS011;10657;51.276;6.390;2023-08-12T08:39:12;4.15;;;1.73;;
20997;SDS011;10657;51.276;6.390;2023-08-12T08:41:39;9.50;;;2.28;;
20997;SDS011;10657;51.276;6.390;2023-08-12T08:44:07;3.95;;;1.70;;
20997;SDS011;10657;51.276;6.390;2023-08-12T08:46:35;4.35;;;1.50;;
20997;SDS011;10657;51.276;6.390;2023-08-12T08:49:02;4.25;;;1.70;;
20997;SDS011;10657;51.276;6.390;2023-08-12T08:51:30;3.55;;;1.52;;
20997;SDS011;10657;51.276;6.390;2023-08-12T08:54:02;7.38;;;2.13;;
20997;SDS011;10657;51.276;6.390;2023-08-12T08:56:32;3.92;;;1.77;;
20997;SDS011;10657;51.276;6.390;2023-08-12T08:59:03;5.00;;;1.80;;
20997;SDS011;10657;51.276;6.390;2023-08-12T09:01:30;5.47;;;1.90;;
20997;SDS011;10657;51.276;6.390;2023-08-12T09:03:57;5.43;;;2.30;;
20997;SDS011;10657;51.276;6.390;2023-08-12T09:06:25;5.25;;;2.15;;
20997;SDS011;10657;51.276;6.390;2023-08-12T09:08:53;7.85;;;2.15;;
20997;SDS011;10657;51.276;6.390;2023-08-12T09:11:20;4.82;;;1.90;;
20997;SDS011;10657;51.276;6.390;2023-08-12T09:13:47;3.10;;;1.50;;
20997;SDS011;10657;51.276;6.390;2023-08-12T09:16:15;6.53;;;1.80;;
20997;SDS011;10657;51.276;6.390;2023-08-12T09:18:42;3.88;;;1.60;;
20997;SDS011;10657;51.276;6.390;2023-08-12T09:21:10;4.45;;;1.60;;
20997;SDS011;10657;51.276;6.390;2023-08-12T09:23:38;3.75;;;1.50;;
20997;SDS011;10657;51.276;6.390;2023-08-12T09:26:12;3.30;;;1.45;;
20997;SDS011;10657;51.276;6.390;2023-08-12T09:28:44;4.82;;;1.50;;
20997;SDS011;10657;51.276;6.390;2023-08-12T09:31:21;5.82;;;1.90;;
20997;SDS011;10657;51.276;6.390;2023-08-12T09:33:48;4.80;;;1.80;;
20997;SDS011;10657;51.276;6.390;2023-08-12T09:36:15;4.90;;;2.00;;
20997;SDS011;10657;51.276;6.390;2023-08-12T09:38:43;5.32;;;1.80;;
20997;SDS011;10657;51.276;6.390;2023-08-12T09:41:10;4.20;;;1.67;;
20997;SDS011;10657;51.276;6.390;2023-08-12T09:43:41;3.55;;;1.77;;
20997;SDS011;10657;51.276;6.390;2023-08-12T09:46:11;4.65;;;1.80;;
20997;SDS011;10657;51.276;6.390;2023-08-12T09:48:42;4.43;;;1.85;;
20997;SDS011;10657;51.276;6.390;2023-08-12T09:51:09;4.35;;;1.60;;
20997;SDS011;10657;51.276;6.390;2023-08-12T09:53:36;3.58;;;1.58;;
20997;SDS011;10657;51.276;6.390;2023-08-12T09:56:06;3.20;;;1.35;;
20997;SDS011;10657;51.276;6.390;2023-08-12T09:58:35;4.07;;;1.60;;
20997;SDS011;10657;51.276;6.390;2023-08-12T10:01:05;3.47;;;1.60;;
20997;SDS011;10657;51.276;6.390;2023-08-12T10:03:34;3.42;;;1.60;;
20997;SDS011;10657;51.276;6.390;2023-08-12T10:06:03;4.25;;;1.70;;
20997;SDS011;10657;51.276;6.390;2023-08-12T10:08:31;2.58;;;1.30;;
20997;SDS011;10657;51.276;6.390;2023-08-12T10:11:00;3.88;;;1.63;;
20997;SDS011;10657;51.276;6.390;2023-08-12T10:13:38;3.92;;;1.60;;
20997;SDS011;10657;51.276;6.390;2023-08-12T10:16:09;3.75;;;1.88;;
20997;SDS011;10657;51.276;6.390;2023-08-12T10:18:40;4.05;;;1.60;;
20997;SDS011;10657;51.276;6.390;2023-08-12T10:21:09;3.90;;;1.50;;
20997;SDS011;10657;51.276;6.390;2023-08-12T10:23:37;3.25;;;1.35;;
20997;SDS011;10657;51.276;6.390;2023-08-12T10:26:05;3.15;;;1.35;;
20997;SDS011;10657;51.276;6.390;2023-08-12T10:28:33;5.57;;;1.50;;
20997;SDS011;10657;51.276;6.390;2023-08-12T10:31:06;3.78;;;1.75;;
20997;SDS011;10657;51.276;6.390;2023-08-12T10:33:40;3.08;;;1.25;;
20997;SDS011;10657;51.276;6.390;2023-08-12T10:36:07;3.60;;;1.48;;
20997;SDS011;10657;51.276;6.390;2023-08-12T10:38:35;3.25;;;1.40;;
20997;SDS011;10657;51.276;6.390;2023-08-12T10:41:21;2.45;;;1.00;;
20997;SDS011;10657;51.276;6.390;2023-08-12T10:49:03;3.00;;;1.20;;
20997;SDS011;10657;51.276;6.390;2023-08-12T10:54:26;2.58;;;1.20;;
20997;SDS011;10657;51.276;6.390;2023-08-12T11:02:13;2.75;;;1.10;;
20997;SDS011;10657;51.276;6.390;2023-08-12T11:04:44;3.28;;;1.40;;
20997;SDS011;10657;51.276;6.390;2023-08-12T11:07:18;3.20;;;1.30;;
20997;SDS011;10657;51.276;6.390;2023-08-12T11:09:46;2.65;;;1.30;;
20997;SDS011;10657;51.276;6.390;2023-08-12T11:12:28;3.92;;;1.55;;
20997;SDS011;10657;51.276;6.390;2023-08-12T11:14:59;3.65;;;1.70;;
20997;SDS011;10657;51.276;6.390;2023-08-12T11:17:31;3.30;;;1.50;;
20997;SDS011;10657;51.276;6.390;2023-08-12T11:20:04;3.30;;;1.20;;
20997;SDS011;10657;51.276;6.390;2023-08-12T11:22:33;5.45;;;1.80;;
20997;SDS011;10657;51.276;6.390;2023-08-12T11:25:09;4.43;;;1.70;;
20997;SDS011;10657;51.276;6.390;2023-08-12T11:30:08;3.35;;;1.48;;
20997;SDS011;10657;51.276;6.390;2023-08-12T11:32:39;5.10;;;1.90;;
20997;SDS011;10657;51.276;6.390;2023-08-12T11:35:07;7.38;;;2.20;;
20997;SDS011;10657;51.276;6.390;2023-08-12T11:37:35;5.18;;;2.30;;
20997;SDS011;10657;51.276;6.390;2023-08-12T11:40:03;4.78;;;2.40;;
20997;SDS011;10657;51.276;6.390;2023-08-12T11:42:31;4.07;;;2.15;;
20997;SDS011;10657;51.276;6.390;2023-08-12T11:44:58;5.00;;;2.50;;
20997;SDS011;10657;51.276;6.390;2023-08-12T11:47:24;6.43;;;2.42;;
20997;SDS011;10657;51.276;6.390;2023-08-12T11:49:52;5.15;;;2.90;;
20997;SDS011;10657;51.276;6.390;2023-08-12T11:52:20;5.43;;;3.08;;
20997;SDS011;10657;51.276;6.390;2023-08-12T11:54:48;5.72;;;2.70;;
20997;SDS011;10657;51.276;6.390;2023-08-12T11:57:16;5.75;;;3.10;;
20997;SDS011;10657;51.276;6.390;2023-08-12T11:59:43;6.55;;;3.55;;
20997;SDS011;10657;51.276;6.390;2023-08-12T12:02:10;7.13;;;4.03;;
20997;SDS011;10657;51.276;6.390;2023-08-12T12:04:38;7.25;;;3.88;;
20997;SDS011;10657;51.276;6.390;2023-08-12T12:07:21;7.03;;;3.97;;
20997;SDS011;10657;51.276;6.390;2023-08-12T12:09:50;8.48;;;4.82;;
20997;SDS011;10657;51.276;6.390;2023-08-12T12:12:21;7.82;;;4.95;;
20997;SDS011;10657;51.276;6.390;2023-08-12T12:14:53;7.35;;;4.78;;
20997;SDS011;10657;51.276;6.390;2023-08-12T12:17:21;8.45;;;5.47;;
20997;SDS011;10657;51.276;6.390;2023-08-12T12:19:52;8.10;;;5.43;;
20997;SDS011;10657;51.276;6.390;2023-08-12T12:22:29;8.25;;;5.95;;
20997;SDS011;10657;51.276;6.390;2023-08-12T12:25:00;8.35;;;5.93;;
20997;SDS011;10657;51.276;6.390;2023-08-12T12:27:32;10.30;;;6.65;;
20997;SDS011;10657;51.276;6.390;2023-08-12T12:30:00;8.55;;;5.85;;
20997;SDS011;10657;51.276;6.390;2023-08-12T12:32:27;8.63;;;5.63;;
20997;SDS011;10657;51.276;6.390;2023-08-12T12:34:53;9.40;;;6.63;;
20997;SDS011;10657;51.276;6.390;2023-08-12T12:37:21;10.55;;;6.43;;
20997;SDS011;10657;51.276;6.390;2023-08-12T12:39:47;9.32;;;6.85;;
20997;SDS011;10657;51.276;6.390;2023-08-12T12:42:14;10.32;;;7.65;;
20997;SDS011;10657;51.276;6.390;2023-08-12T12:44:41;9.60;;;7.18;;
20997;SDS011;10657;51.276;6.390;2023-08-12T12:47:07;9.25;;;7.05;;
20997;SDS011;10657;51.276;6.390;2023-08-12T12:49:37;9.95;;;6.97;;
20997;SDS011;10657;51.276;6.390;2023-08-12T12:52:04;8.15;;;5.95;;
20997;SDS011;10657;51.276;6.390;2023-08-12T12:54:31;9.13;;;6.03;;
20997;SDS011;10657;51.276;6.390;2023-08-12T12:56:57;7.55;;;4.50;;
20997;SDS011;10657;51.276;6.390;2023-08-12T12:59:24;7.82;;;5.03;;
20997;SDS011;10657;51.276;6.390;2023-08-12T13:01:51;8.63;;;5.00;;
20997;SDS011;10657;51.276;6.390;2023-08-12T13:04:18;9.18;;;5.28;;
20997;SDS011;10657;51.276;6.390;2023-08-12T13:06:45;9.25;;;5.40;;
20997;SDS011;10657;51.276;6.390;2023-08-12T13:09:12;8.43;;;5.45;;
20997;SDS011;10657;51.276;6.390;2023-08-12T13:11:39;11.15;;;6.32;;
20997;SDS011;10657;51.276;6.390;2023-08-12T13:14:05;10.13;;;6.13;;
20997;SDS011;10657;51.276;6.390;2023-08-12T13:16:32;11.75;;;9.35;;
20997;SDS011;10657;51.276;6.390;2023-08-12T13:18:59;12.93;;;8.57;;
20997;SDS011;10657;51.276;6.390;2023-08-12T13:21:26;12.35;;;10.27;;
20997;SDS011;10657;51.276;6.390;2023-08-12T13:23:53;11.48;;;9.82;;
20997;SDS011;10657;51.276;6.390;2023-08-12T13:26:21;11.85;;;8.98;;
20997;SDS011;10657;51.276;6.390;2023-08-12T13:28:48;13.73;;;9.23;;
20997;SDS011;10657;51.276;6.390;2023-08-12T13:31:15;12.20;;;9.30;;
20997;SDS011;10657;51.276;6.390;2023-08-12T13:33:41;13.45;;;9.45;;
20997;SDS011;10657;51.276;6.390;2023-08-12T13:36:08;11.60;;;8.60;;
20997;SDS011;10657;51.276;6.390;2023-08-12T13:38:35;11.52;;;8.10;;
20997;SDS011;10657;51.276;6.390;2023-08-12T13:41:01;10.23;;;5.85;;
20997;SDS011;10657;51.276;6.390;2023-08-12T13:43:28;8.73;;;5.65;;
20997;SDS011;10657;51.276;6.390;2023-08-12T13:45:56;7.70;;;5.30;;
20997;SDS011;10657;51.276;6.390;2023-08-12T13:48:23;8.75;;;5.38;;
20997;SDS011;10657;51.276;6.390;2023-08-12T13:50:49;9.25;;;5.72;;
20997;SDS011;10657;51.276;6.390;2023-08-12T13:53:18;8.93;;;5.20;;
20997;SDS011;10657;51.276;6.390;2023-08-12T13:55:45;10.95;;;5.43;;
20997;SDS011;10657;51.276;6.390;2023-08-12T13:58:12;9.05;;;5.50;;
20997;SDS011;10657;51.276;6.390;2023-08-12T14:00:39;10.95;;;5.45;;
20997;SDS011;10657;51.276;6.390;2023-08-12T14:03:05;10.75;;;5.18;;
20997;SDS011;10657;51.276;6.390;2023-08-12T14:05:32;12.48;;;4.90;;
20997;SDS011;10657;51.276;6.390;2023-08-12T14:07:59;10.23;;;4.50;;
20997;SDS011;10657;51.276;6.390;2023-08-12T14:10:25;7.40;;;4.80;;
20997;SDS011;10657;51.276;6.390;2023-08-12T14:12:52;9.02;;;4.95;;
20997;SDS011;10657;51.276;6.390;2023-08-12T14:15:19;8.75;;;4.47;;
20997;SDS011;10657;51.276;6.390;2023-08-12T14:17:46;10.63;;;4.72;;
20997;SDS011;10657;51.276;6.390;2023-08-12T14:20:13;10.55;;;4.57;;
20997;SDS011;10657;51.276;6.390;2023-08-12T14:22:41;7.97;;;4.80;;
20997;SDS011;10657;51.276;6.390;2023-08-12T14:25:10;8.13;;;4.03;;
20997;SDS011;10657;51.276;6.390;2023-08-12T14:27:37;9.00;;;4.57;;
20997;SDS011;10657;51.276;6.390;2023-08-12T14:30:04;7.20;;;4.47;;
20997;SDS011;10657;51.276;6.390;2023-08-12T14:32:31;8.98;;;4.30;;
20997;SDS011;10657;51.276;6.390;2023-08-12T14:34:58;7.18;;;4.38;;
20997;SDS011;10657;51.276;6.390;2023-08-12T14:37:24;6.80;;;4.13;;
20997;SDS011;10657;51.276;6.390;2023-08-12T14:39:51;8.05;;;4.47;;
20997;SDS011;10657;51.276;6.390;2023-08-12T14:42:18;9.85;;;4.13;;
20997;SDS011;10657;51.276;6.390;2023-08-12T14:44:44;9.18;;;3.88;;
20997;SDS011;10657;51.276;6.390;2023-08-12T14:47:11;11.48;;;4.15;;
20997;SDS011;10657;51.276;6.390;2023-08-12T14:49:38;7.22;;;3.42;;
20997;SDS011;10657;51.276;6.390;2023-08-12T14:52:05;9.98;;;4.30;;
20997;SDS011;10657;51.276;6.390;2023-08-12T14:54:40;9.63;;;4.20;;
20997;SDS011;10657;51.276;6.390;2023-08-12T14:57:07;8.57;;;3.97;;